createdAt,value
2018-11-13T00:00:52.656Z,105.33
2018-11-13T00:03:55.141Z,104.63
2018-11-13T00:06:48.906Z,107.13
2018-11-13T00:09:45.136Z,104.53
2018-11-13T00:12:37.578Z,105.40
2018-11-13T00:15:32.582Z,104.23
2018-11-13T00:18:27.892Z,103.37
2018-11-13T00:21:21.463Z,106.03
2018-11-13T00:24:14.931Z,105.00
2018-11-13T00:27:10.340Z,106.17
2018-11-13T00:30:07.534Z,105.77
2018-11-13T00:33:02.813Z,105.73
2018-11-13T00:35:58.217Z,103.63
2018-11-13T00:38:51.770Z,107.57
2018-11-13T00:41:45.252Z,107.03
2018-11-13T00:44:38.925Z,106.10
2018-11-13T00:47:32.596Z,104.70
2018-11-13T00:50:28.264Z,108.70
2018-11-13T00:53:27.816Z,104.53
2018-11-13T00:56:18.627Z,107.57
2018-11-13T00:59:13.446Z,109.90
2018-11-13T01:02:07.781Z,108.93
2018-11-13T01:05:01.870Z,111.57
2018-11-13T01:07:55.774Z,111.87
2018-11-13T01:10:49.448Z,110.87
2018-11-13T01:13:42.912Z,108.63
2018-11-13T01:16:36.999Z,111.87
2018-11-13T01:19:30.560Z,114.27
2018-11-13T01:22:24.795Z,120.35
2018-11-13T01:25:19.212Z,116.53
2018-11-13T01:28:13.134Z,127.20
2018-11-13T01:31:11.094Z,122.93
2018-11-13T01:34:04.553Z,122.70
2018-11-13T01:36:58.426Z,123.23
2018-11-13T01:39:52.202Z,125.27
2018-11-13T01:42:46.180Z,120.83
2018-11-13T01:45:42.209Z,118.77
2018-11-13T01:48:35.675Z,126.37
2018-11-13T01:51:29.446Z,125.47
2018-11-13T01:54:23.480Z,120.90
2018-11-13T01:57:18.021Z,125.67
2018-11-13T02:00:26.746Z,127.23
2018-11-13T02:03:21.858Z,125.13
2018-11-13T02:06:15.932Z,124.63
2018-11-13T02:09:17.881Z,121.47
2018-11-13T02:12:09.830Z,120.87
2018-11-13T02:15:05.445Z,123.53
2018-11-13T02:18:02.705Z,124.80
2018-11-13T02:20:56.785Z,120.43
2018-11-13T02:23:50.965Z,119.43
2018-11-13T02:26:48.008Z,116.80
2018-11-13T02:29:38.514Z,118.47
2018-11-13T02:32:32.823Z,113.40
2018-11-13T02:35:26.401Z,114.77
2018-11-13T02:38:20.220Z,113.77
2018-11-13T02:41:16.739Z,116.07
2018-11-13T02:44:11.069Z,116.30
2018-11-13T02:47:04.645Z,115.50
2018-11-13T02:50:01.076Z,114.10
2018-11-13T02:52:55.270Z,110.67
2018-11-13T02:55:49.448Z,108.67
2018-11-13T02:58:43.328Z,120.57
2018-11-13T03:01:36.876Z,113.47
2018-11-13T03:04:32.199Z,108.13
2018-11-13T03:07:28.125Z,109.60
2018-11-13T03:10:23.848Z,105.23
2018-11-13T03:13:17.433Z,107.37
2018-11-13T03:16:13.319Z,107.20
2018-11-13T03:19:06.909Z,104.57
2018-11-13T03:22:01.380Z,105.83
2018-11-13T03:24:55.896Z,107.80
2018-11-13T03:27:50.289Z,106.93
2018-11-13T03:30:46.816Z,106.03
2018-11-13T03:33:40.613Z,106.17
2018-11-13T03:36:37.742Z,104.77
2018-11-13T03:39:31.618Z,101.47
2018-11-13T03:42:26.829Z,103.40
2018-11-13T03:45:20.912Z,99.17
2018-11-13T03:48:18.372Z,98.17
2018-11-13T03:51:12.563Z,101.40
2018-11-13T03:54:06.742Z,97.67
2018-11-13T03:57:00.712Z,94.50
2018-11-13T03:59:56.447Z,97.83
2018-11-13T04:02:50.406Z,92.77
2018-11-13T04:05:45.729Z,95.80
2018-11-13T04:08:40.117Z,95.97
2018-11-13T04:11:35.137Z,94.87
2018-11-13T04:14:29.195Z,96.73
2018-11-13T04:17:22.965Z,96.40
2018-11-13T04:20:22.541Z,94.43
2018-11-13T04:23:16.043Z,95.43
2018-11-13T04:26:09.717Z,90.93
2018-11-13T04:42:25.460Z,94.47
2018-11-13T04:45:20.577Z,92.13
2018-11-13T04:48:14.893Z,90.20
2018-11-13T04:51:09.250Z,91.27
2018-11-13T04:54:02.921Z,88.37
2018-11-13T04:56:58.743Z,90.63
2018-11-13T04:59:53.036Z,85.55
2018-11-13T05:02:47.735Z,85.47
2018-11-13T05:05:41.374Z,86.47
2018-11-13T05:22:25.697Z,82.20
2018-11-13T05:25:24.333Z,79.37
2018-11-13T05:28:54.875Z,78.70
2018-11-13T05:31:50.310Z,79.80
2018-11-13T05:34:45.648Z,81.93
2018-11-13T05:37:44.301Z,78.00
2018-11-13T05:40:43.287Z,76.83
2018-11-13T05:43:37.643Z,76.17
2018-11-13T05:46:41.975Z,71.53
2018-11-13T05:49:38.593Z,74.87
2018-11-13T05:52:36.594Z,75.33
2018-11-13T05:55:34.919Z,74.27
2018-11-13T05:58:30.403Z,71.87
2018-11-13T06:01:22.504Z,73.15
2018-11-13T06:04:19.527Z,70.17
2018-11-13T06:07:15.536Z,73.53
2018-11-13T06:10:16.667Z,68.67
2018-11-13T06:13:20.537Z,68.97
2018-11-13T06:16:14.858Z,70.37
2018-11-13T06:19:16.720Z,67.17
2018-11-13T06:22:12.333Z,68.20
2018-11-13T06:25:08.979Z,66.70
2018-11-13T06:28:25.215Z,68.43
2018-11-13T06:31:20.557Z,65.97
2018-11-13T06:34:17.714Z,65.73
2018-11-13T06:37:14.376Z,64.10
2018-11-13T06:40:10.029Z,65.03
2018-11-13T06:43:27.026Z,60.63
2018-11-13T06:46:25.208Z,62.90
2018-11-13T06:49:25.893Z,60.90
2018-11-13T06:52:29.547Z,60.87
2018-11-13T06:55:37.038Z,58.63
2018-11-13T06:58:30.799Z,60.47
2018-11-13T07:01:25.166Z,57.03
2018-11-13T07:04:20.231Z,51.58
2018-11-13T07:07:17.940Z,54.53
2018-11-13T07:10:14.066Z,53.70
2018-11-13T07:13:10.926Z,55.30
2018-11-13T07:16:18.111Z,54.03
2018-11-13T07:19:13.408Z,53.50
2018-11-13T07:22:10.010Z,53.03
2018-11-13T07:25:29.695Z,51.90
2018-11-13T07:28:18.289Z,54.90
2018-11-13T07:31:12.364Z,54.90
2018-11-13T07:34:10.662Z,53.30
2018-11-13T07:37:26.542Z,53.07
2018-11-13T07:44:13.460Z,49.37
2018-11-13T07:47:06.201Z,49.27
2018-11-13T07:50:04.056Z,49.43
2018-11-13T07:53:00.848Z,45.92
2018-11-13T07:55:55.378Z,45.57
2018-11-13T07:58:49.498Z,44.35
2018-11-13T08:01:44.136Z,42.27
2018-11-13T08:04:38.615Z,42.37
2018-11-13T08:07:37.166Z,40.45
2018-11-13T08:14:30.543Z,40.35
2018-11-13T08:17:59.646Z,41.20
2018-11-13T08:20:56.429Z,39.13
2018-11-13T08:23:59.204Z,38.30
2018-11-13T08:27:18.526Z,39.40
2018-11-13T08:30:34.524Z,39.23
2018-11-13T08:33:30.131Z,37.00
2018-11-13T08:36:25.526Z,36.93
2018-11-13T08:39:23.721Z,38.03
2018-11-13T08:42:15.223Z,36.90
2018-11-13T08:45:16.055Z,37.10
2018-11-13T08:48:11.454Z,39.37
2018-11-13T08:51:07.788Z,39.00
2018-11-13T08:54:12.758Z,39.17
2018-11-13T08:57:31.176Z,38.88
2018-11-13T09:00:29.238Z,38.93
2018-11-13T09:03:32.959Z,40.13
2018-11-13T09:07:16.532Z,41.30
2018-11-13T09:10:23.993Z,38.53
2018-11-13T09:13:25.974Z,38.70
2018-11-13T09:16:31.504Z,39.40
2018-11-13T09:19:25.606Z,40.17
2018-11-13T09:22:22.028Z,38.90
2018-11-13T09:26:14.146Z,40.03
2018-11-13T09:28:47.173Z,37.17
2018-11-13T09:31:42.159Z,39.57
2018-11-13T09:34:36.219Z,38.30
2018-11-13T09:37:31.082Z,38.83
2018-11-13T09:40:25.836Z,39.27
2018-11-13T09:43:21.968Z,38.93
2018-11-13T09:46:27.781Z,39.30
2018-11-13T09:50:06.111Z,39.50
2018-11-13T09:53:08.723Z,39.13
2018-11-13T09:56:10.735Z,39.13
2018-11-13T09:59:19.342Z,38.57
2018-11-13T10:02:18.239Z,38.33
2018-11-13T10:05:16.893Z,39.37
2018-11-13T10:08:33.825Z,37.67
2018-11-13T10:11:27.451Z,38.00
2018-11-13T10:14:30.234Z,38.10
2018-11-13T10:17:31.188Z,37.47
2018-11-13T10:20:43.182Z,37.10
2018-11-13T10:24:14.892Z,37.53
2018-11-13T10:27:33.781Z,36.00
2018-11-13T10:30:26.925Z,37.67
2018-11-13T10:33:24.700Z,36.60
2018-11-13T10:36:20.403Z,37.20
2018-11-13T10:39:36.603Z,35.60
2018-11-13T10:42:31.855Z,35.75
2018-11-13T10:45:38.461Z,36.17
2018-11-13T10:48:51.980Z,33.90
2018-11-13T10:52:19.847Z,34.43
2018-11-13T10:55:42.871Z,34.10
2018-11-13T10:58:41.236Z,34.03
2018-11-13T11:01:59.434Z,34.10
2018-11-13T11:05:45.646Z,33.17
2018-11-13T11:12:05.462Z,32.73
2018-11-13T11:15:22.301Z,33.10
2018-11-13T11:18:33.701Z,34.17
2018-11-13T11:29:59.554Z,33.23
2018-11-13T11:33:13.091Z,31.00
2018-11-13T11:36:14.634Z,31.00
2018-11-13T11:39:17.850Z,32.70
2018-11-13T11:42:36.787Z,31.50
2018-11-13T11:46:03.085Z,30.30
2018-11-13T11:49:21.292Z,30.50
2018-11-13T11:52:15.352Z,31.07
2018-11-13T11:55:15.990Z,31.17
2018-11-13T11:58:20.992Z,30.67
2018-11-13T12:01:44.669Z,29.63
2018-11-13T12:04:45.449Z,31.03
2018-11-13T12:07:40.147Z,30.88
2018-11-13T12:10:34.508Z,30.37
2018-11-13T12:13:34.048Z,30.50
2018-11-13T12:16:33.017Z,28.97
2018-11-13T12:19:28.382Z,30.65
2018-11-13T12:22:27.879Z,31.30
2018-11-13T12:25:24.448Z,31.07
2018-11-13T12:28:21.658Z,31.87
2018-11-13T12:31:22.186Z,30.63
2018-11-13T12:34:20.702Z,31.10
2018-11-13T12:37:23.562Z,33.00
2018-11-13T12:40:24.239Z,32.83
2018-11-13T12:43:16.497Z,32.47
2018-11-13T12:46:15.631Z,30.57
2018-11-13T12:49:18.300Z,32.80
2018-11-13T12:52:20.882Z,34.33
2018-11-13T12:55:27.119Z,34.43
2018-11-13T12:58:22.506Z,34.03
2018-11-13T13:01:18.173Z,34.83
2018-11-13T13:04:15.882Z,34.33
2018-11-13T13:07:17.113Z,35.30
2018-11-13T13:10:15.414Z,35.30
2018-11-13T13:13:12.370Z,35.87
2018-11-13T13:16:08.316Z,35.75
2018-11-13T13:19:06.616Z,35.23
2018-11-13T13:22:02.454Z,35.07
2018-11-13T13:24:57.734Z,35.73
2018-11-13T13:28:37.571Z,37.67
2018-11-13T13:31:34.570Z,38.17
2018-11-13T13:34:28.753Z,43.80
2018-11-13T13:37:22.748Z,40.63
2018-11-13T13:40:16.593Z,38.50
2018-11-13T13:43:14.266Z,37.30
2018-11-13T13:46:10.076Z,39.80
2018-11-13T13:49:07.024Z,39.07
2018-11-13T13:52:00.472Z,42.23
2018-11-13T13:54:55.288Z,38.57
2018-11-13T13:57:52.336Z,39.57
2018-11-13T14:00:46.443Z,39.90
2018-11-13T14:03:44.729Z,40.98
2018-11-13T14:06:40.095Z,39.77
2018-11-13T14:09:34.908Z,41.13
2018-11-13T14:12:31.860Z,40.70
2018-11-13T14:15:25.881Z,38.63
2018-11-13T14:18:19.405Z,40.87
2018-11-13T14:21:12.847Z,42.17
2018-11-13T14:24:06.569Z,43.07
2018-11-13T14:27:00.732Z,41.97
2018-11-13T14:29:55.200Z,40.13
2018-11-13T14:32:50.532Z,43.27
2018-11-13T14:35:44.982Z,43.43
2018-11-13T14:38:38.699Z,43.10
2018-11-13T14:41:32.979Z,41.13
2018-11-13T14:44:27.328Z,41.97
2018-11-13T14:47:20.896Z,43.03
2018-11-13T14:50:19.735Z,43.37
2018-11-13T14:53:14.441Z,42.90
2018-11-13T14:56:08.808Z,43.70
2018-11-13T14:59:04.411Z,42.83
2018-11-13T15:01:58.240Z,42.77
2018-11-13T15:04:52.161Z,43.13
2018-11-13T15:07:47.463Z,41.65
2018-11-13T15:10:57.237Z,39.80
2018-11-13T15:13:52.141Z,43.87
2018-11-13T15:16:46.015Z,43.27
2018-11-13T15:19:40.506Z,42.83
2018-11-13T15:22:34.282Z,41.47
2018-11-13T15:25:28.368Z,41.10
2018-11-13T15:28:21.931Z,42.53
2018-11-13T15:31:15.866Z,42.67
2018-11-13T15:34:09.785Z,42.80
2018-11-13T15:37:03.678Z,41.67
2018-11-13T15:39:57.137Z,39.93
2018-11-13T15:42:51.447Z,42.93
2018-11-13T15:45:45.198Z,43.03
2018-11-13T15:48:39.090Z,39.43
2018-11-13T15:51:32.592Z,41.27
2018-11-13T15:54:26.711Z,41.60
2018-11-13T15:57:24.170Z,42.03
2018-11-13T16:00:20.203Z,42.27
2018-11-13T16:03:31.689Z,41.30
2018-11-13T16:06:26.567Z,41.30
2018-11-13T16:09:22.421Z,41.37
2018-11-13T16:12:20.163Z,42.67
2018-11-13T16:15:13.136Z,43.07
2018-11-13T16:18:08.064Z,40.87
2018-11-13T16:21:01.692Z,40.55
2018-11-13T16:23:56.895Z,40.73
2018-11-13T16:26:52.651Z,39.80
2018-11-13T16:29:46.235Z,40.80
2018-11-13T16:32:40.390Z,40.50
2018-11-13T16:35:34.505Z,38.20
2018-11-13T16:38:29.400Z,40.77
2018-11-13T16:41:23.289Z,41.75
2018-11-13T16:44:17.788Z,39.65
2018-11-13T16:47:13.865Z,41.63
2018-11-13T16:50:11.425Z,40.57
2018-11-13T16:53:07.368Z,40.20
2018-11-13T16:56:09.010Z,42.47
2018-11-13T16:59:04.727Z,42.37
2018-11-13T17:01:58.423Z,41.67
2018-11-13T17:04:53.166Z,41.37
2018-11-13T17:07:49.755Z,42.17
2018-11-13T17:10:44.873Z,40.27
2018-11-13T17:13:38.932Z,42.90
2018-11-13T17:16:32.569Z,42.88
2018-11-13T17:19:26.272Z,45.83
2018-11-13T17:22:21.679Z,46.17
2018-11-13T17:25:19.857Z,50.40
2018-11-13T17:28:16.394Z,46.37
2018-11-13T17:31:10.438Z,47.33
2018-11-13T17:34:08.853Z,48.20
2018-11-13T17:37:00.181Z,47.03
2018-11-13T17:39:53.544Z,47.73
2018-11-13T17:42:48.254Z,49.03
2018-11-13T17:45:43.340Z,50.27
2018-11-13T17:48:37.714Z,51.53
2018-11-13T17:51:31.605Z,48.70
2018-11-13T17:54:25.902Z,51.97
2018-11-13T17:57:20.075Z,56.13
2018-11-13T18:00:23.929Z,55.57
2018-11-13T18:03:22.076Z,55.07
2018-11-13T18:06:13.733Z,53.25
2018-11-13T18:09:12.256Z,60.53
2018-11-13T18:12:06.005Z,57.40
2018-11-13T18:14:59.636Z,66.57
2018-11-13T18:17:54.316Z,62.13
2018-11-13T18:20:48.597Z,56.10
2018-11-13T18:23:42.553Z,62.60
2018-11-13T18:26:36.810Z,58.97
2018-11-13T18:29:34.024Z,62.50
2018-11-13T18:32:24.887Z,61.13
2018-11-13T18:35:20.233Z,60.07
2018-11-13T18:38:15.613Z,57.33
2018-11-13T18:41:09.725Z,55.60
2018-11-13T18:44:03.907Z,57.17
2018-11-13T18:46:58.092Z,55.37
2018-11-13T18:49:52.068Z,59.37
2018-11-13T18:52:45.925Z,55.43
2018-11-13T18:55:39.518Z,55.23
2018-11-13T18:58:40.697Z,57.88
2018-11-13T19:01:34.641Z,56.25
2018-11-13T19:04:29.338Z,57.43
2018-11-13T19:07:22.909Z,58.97
2018-11-13T19:11:00.314Z,61.40
2018-11-13T19:13:55.713Z,56.00
2018-11-13T19:16:51.387Z,56.15
2018-11-13T19:19:45.098Z,59.20
2018-11-13T19:22:39.912Z,55.03
2018-11-13T19:25:39.428Z,60.30
2018-11-13T19:28:28.684Z,61.40
2018-11-13T19:31:22.353Z,62.10
2018-11-13T19:34:16.126Z,63.40
2018-11-13T19:37:09.723Z,63.40
2018-11-13T19:40:05.107Z,63.93
2018-11-13T19:42:59.265Z,64.50
2018-11-13T19:45:52.500Z,66.07
2018-11-13T19:48:46.111Z,68.00
2018-11-13T19:51:40.050Z,66.43
2018-11-13T19:54:33.801Z,69.37
2018-11-13T19:57:27.936Z,67.57
2018-11-13T20:00:32.454Z,70.90
2018-11-13T20:03:22.979Z,71.87
2018-11-13T20:06:17.268Z,67.30
2018-11-13T20:09:12.473Z,68.00
2018-11-13T20:12:06.147Z,65.80
2018-11-13T20:15:01.147Z,64.10
2018-11-13T20:17:54.715Z,63.90
2018-11-13T20:20:48.492Z,62.40
2018-11-13T20:23:42.768Z,61.47
2018-11-13T20:26:36.653Z,60.73
2018-11-13T20:29:31.452Z,60.10
2018-11-13T20:32:26.555Z,62.50
2018-11-13T20:35:22.791Z,59.35
2018-11-13T20:38:16.768Z,62.33
2018-11-13T20:41:10.748Z,61.85
2018-11-13T20:44:08.904Z,59.83
2018-11-13T20:46:59.419Z,61.23
2018-11-13T20:49:53.297Z,60.57
2018-11-13T20:52:46.765Z,61.37
2018-11-13T20:55:40.230Z,61.80
2018-11-13T20:58:33.697Z,63.50
2018-11-13T21:01:27.573Z,59.40
2018-11-13T21:04:21.450Z,62.40
2018-11-13T21:07:18.384Z,62.87
2018-11-13T21:10:15.106Z,59.63
2018-11-13T21:13:09.022Z,61.20
2018-11-13T21:16:04.248Z,58.70
2018-11-13T21:18:58.006Z,63.43
2018-11-13T21:21:52.083Z,61.33
2018-11-13T21:24:45.925Z,59.37
2018-11-13T21:27:39.891Z,60.20
2018-11-13T21:30:33.229Z,62.40
2018-11-13T21:33:26.869Z,61.53
2018-11-13T21:36:20.751Z,60.63
2018-11-13T21:39:15.942Z,60.87
2018-11-13T21:42:11.367Z,59.47
2018-11-13T21:45:06.983Z,60.10
2018-11-13T21:48:03.419Z,60.57
2018-11-13T21:50:57.196Z,61.07
2018-11-13T21:53:52.502Z,59.80
2018-11-13T21:56:45.971Z,61.47
2018-11-13T21:59:39.845Z,60.73
2018-11-13T22:02:33.518Z,60.63
2018-11-13T22:05:28.135Z,57.93
2018-11-13T22:08:22.075Z,59.50
2018-11-13T22:11:16.890Z,59.50
2018-11-13T22:14:12.508Z,62.50
2018-11-13T22:17:08.223Z,59.67
2018-11-13T22:20:02.611Z,62.33
2018-11-13T22:22:57.721Z,61.93
2018-11-13T22:25:51.491Z,62.00
2018-11-13T22:28:45.493Z,60.97
2018-11-13T22:31:38.924Z,63.13
2018-11-13T22:34:32.817Z,65.03
2018-11-13T22:37:26.369Z,63.50
2018-11-13T22:40:23.967Z,70.90
2018-11-13T22:43:18.128Z,63.17
2018-11-13T22:46:13.851Z,69.47
2018-11-13T22:49:10.186Z,66.70
2018-11-13T22:52:03.955Z,75.70
2018-11-13T22:54:58.065Z,77.53
2018-11-13T22:57:53.027Z,70.50
2018-11-13T23:00:48.328Z,78.87
2018-11-13T23:03:41.717Z,81.00
2018-11-13T23:06:36.816Z,81.03
2018-11-13T23:09:30.090Z,85.63
2018-11-13T23:12:24.780Z,80.13
2018-11-13T23:15:22.191Z,80.60
2018-11-13T23:18:16.522Z,87.17
2018-11-13T23:21:10.094Z,82.87
2018-11-13T23:24:04.071Z,85.30
2018-11-13T23:26:57.744Z,86.13
2018-11-13T23:29:51.521Z,86.63
2018-11-13T23:32:51.594Z,93.87
2018-11-13T23:35:46.991Z,96.93
2018-11-13T23:38:40.729Z,95.97
2018-11-13T23:41:34.445Z,98.73
2018-11-13T23:44:28.548Z,96.40
2018-11-13T23:47:22.359Z,95.53
2018-11-13T23:50:18.551Z,93.33
2018-11-13T23:53:13.589Z,94.80
2018-11-13T23:56:07.361Z,98.07
2018-11-13T23:59:03.182Z,94.97
